createdAt,value
2022-07-30T00:01:16.790Z,97992.19816891418
2022-07-30T00:04:17.276Z,97993.12300669866
2022-07-30T00:07:17.183Z,97998.18488482421
2022-07-30T00:11:16.238Z,97995.77797895079
2022-07-30T00:14:16.824Z,97987.2980322733
2022-07-30T00:17:16.664Z,97982.2499109405
2022-07-30T00:21:31.481Z,97977.0215209743
2022-07-30T00:24:16.925Z,97983.67705232775
2022-07-30T00:27:16.929Z,97991.89743807119
2022-07-30T00:31:16.776Z,97990.52775950881
2022-07-30T00:34:17.456Z,97987.34927633178
2022-07-30T00:37:17.054Z,97984.70531426615
2022-07-30T00:41:16.279Z,97983.64877813324
2022-07-30T00:44:16.481Z,97981.40511977587
2022-07-30T00:47:16.559Z,97983.8946129858
2022-07-30T00:51:17.018Z,97985.91091254607
2022-07-30T00:54:17.395Z,97988.59097136186
2022-07-30T01:01:16.471Z,97977.29151660265
2022-07-30T01:04:16.722Z,97974.5347555595
2022-07-30T01:07:16.972Z,97973.33410927313
2022-07-30T01:11:16.877Z,97971.06612424781
2022-07-30T01:14:17.231Z,97962.97686445194
2022-07-30T01:17:17.263Z,97955.14006906477
2022-07-30T01:21:20.479Z,97948.1963257742
2022-07-30T01:24:26.740Z,97945.21434857516
2022-07-30T01:27:19.963Z,97938.10433848145
2022-07-30T01:51:18.599Z,97918.74218132641
2022-07-30T01:54:18.152Z,97914.39641629053
2022-07-30T01:57:20.009Z,97909.23091818321
2022-07-30T02:01:16.639Z,97913.53287280582
2022-07-30T02:04:17.002Z,97914.87991360141
2022-07-30T02:07:22.803Z,97918.69259030494
2022-07-30T02:11:17.773Z,97922.06759626234
2022-07-30T02:14:21.594Z,97919.65018097461
2022-07-30T02:17:30.225Z,97916.82921604782
2022-07-30T02:21:18.449Z,97911.57456422842
2022-07-30T02:24:22.406Z,97911.2011099208
2022-07-30T02:27:21.335Z,97915.58307803817
2022-07-30T02:31:20.157Z,97922.02362953006
2022-07-30T02:34:20.303Z,97919.8712207747
2022-07-30T02:37:20.159Z,97916.40811382698
2022-07-30T02:41:18.523Z,97915.80009486244
2022-07-30T02:44:19.491Z,97916.96168094994
2022-07-30T02:47:18.777Z,97911.42733085317
2022-07-30T02:51:18.842Z,97911.7620745032
2022-07-30T02:54:19.147Z,97910.37771775686
2022-07-30T02:57:20.345Z,97902.50483197182
2022-07-30T03:01:20.648Z,97891.90576811528
2022-07-30T03:04:21.072Z,97888.16772336494
2022-07-30T03:07:20.026Z,97884.37501666327
2022-07-30T03:11:19.477Z,97887.45492040462
2022-07-30T03:14:16.916Z,97888.2325662585
2022-07-30T03:17:19.554Z,97899.85725023839
2022-07-30T03:21:19.294Z,97896.92617613348
2022-07-30T03:24:17.475Z,97897.70847236949
2022-07-30T03:27:18.232Z,97896.50535848441
2022-07-30T03:31:17.228Z,97890.6270310582
2022-07-30T03:34:18.888Z,97890.82954916375
2022-07-30T03:37:17.133Z,97899.79793999366
2022-07-30T03:41:16.568Z,97898.15084258317
2022-07-30T03:44:16.822Z,97896.43673556733
2022-07-30T03:47:19.003Z,97882.67133684589
2022-07-30T03:51:17.104Z,97874.47850772402
2022-07-30T03:54:17.293Z,97875.54849124767
2022-07-30T03:57:20.563Z,97873.62412397774
2022-07-30T04:01:15.913Z,97879.88708398765
2022-07-30T04:04:16.190Z,97877.84623829894
2022-07-30T04:07:16.758Z,97878.04526670925
2022-07-30T04:11:15.886Z,97885.7269615309
2022-07-30T04:14:16.867Z,97894.24501153073
2022-07-30T04:17:21.710Z,97906.47088902938
2022-07-30T04:21:19.647Z,97908.63433443934
2022-07-30T04:24:19.228Z,97909.87174380566
2022-07-30T04:27:17.867Z,97899.54656086667
2022-07-30T04:31:18.272Z,97891.23775367285
2022-07-30T04:34:18.530Z,97888.80713172801
2022-07-30T04:37:21.066Z,97885.40913257735
2022-07-30T04:41:16.758Z,97879.82969203283
2022-07-30T04:44:18.265Z,97886.37234143558
2022-07-30T04:47:17.963Z,97886.6527620937
2022-07-30T04:51:21.762Z,97897.15429796473
2022-07-30T04:54:19.608Z,97906.5492552101
2022-07-30T04:57:18.247Z,97910.65193766884
2022-07-30T05:11:16.435Z,97930.80655678333
2022-07-30T05:14:16.377Z,97932.4300800944
2022-07-30T05:17:16.373Z,97930.59299519044
2022-07-30T05:21:16.526Z,97943.45498475982
2022-07-30T05:24:17.974Z,97944.53952348378
2022-07-30T05:27:17.115Z,97943.49926353763
2022-07-30T05:31:17.422Z,97958.71009977428
2022-07-30T05:34:17.882Z,97967.61886814903
2022-07-30T05:37:17.734Z,97973.00481985138
2022-07-30T05:41:24.485Z,97974.67410647636
2022-07-30T05:44:19.671Z,97977.59585282666
2022-07-30T05:47:18.261Z,97968.04118448873
2022-07-30T05:51:19.368Z,97973.86999546058
2022-07-30T05:54:17.274Z,97972.21398836921
2022-07-30T06:01:19.725Z,97974.73372550834
2022-07-30T06:04:18.743Z,97979.87186607716
2022-07-30T06:07:18.588Z,97979.92076295902
2022-07-30T06:11:16.078Z,97979.80456385987
2022-07-30T06:14:16.334Z,97968.75678229179
2022-07-30T06:17:16.429Z,97975.60870124973
2022-07-30T06:21:16.066Z,97970.89424643593
2022-07-30T06:24:16.635Z,97974.85369749556
2022-07-30T06:27:16.566Z,97976.08707109341
2022-07-30T06:31:16.524Z,97986.59083657875
2022-07-30T06:34:16.867Z,97997.74947296473
2022-07-30T06:37:16.743Z,97994.24731952367
2022-07-30T06:41:17.043Z,98004.71588921195
2022-07-30T06:44:17.617Z,97999.68804735315
2022-07-30T06:47:20.307Z,97993.80135057023
2022-07-30T06:51:16.649Z,97993.80097484062
2022-07-30T06:54:17.144Z,97993.03392781032
2022-07-30T06:57:16.986Z,97996.55156740238
2022-07-30T07:01:18.058Z,97993.82525350727
2022-07-30T07:04:18.682Z,97992.82803382138
2022-07-30T07:07:37.143Z,97999.1069952344
2022-07-30T07:11:16.826Z,97999.73613342829
2022-07-30T07:14:18.134Z,97996.28606633322
2022-07-30T07:17:18.277Z,97991.46120538985
2022-07-30T07:21:15.917Z,97986.28527256232
2022-07-30T07:24:16.276Z,97987.40945823134
2022-07-30T07:27:16.327Z,97979.34442057798
2022-07-30T07:32:07.441Z,97974.10845948686
2022-07-30T07:34:17.377Z,97968.70607716407
2022-07-30T07:37:17.786Z,97968.51649461935
2022-07-30T07:41:16.704Z,97971.1969089221
2022-07-30T07:44:17.111Z,97967.1170523778
2022-07-30T07:47:17.073Z,97965.20056825473
2022-07-30T07:51:15.805Z,97955.92023072152
2022-07-30T07:54:22.587Z,97959.57956146753
2022-07-30T08:01:17.006Z,97959.26912185767
2022-07-30T08:11:17.688Z,97961.69619385795
2022-07-30T08:14:17.782Z,97965.13587699011
2022-07-30T08:21:16.952Z,97966.00358839294
2022-07-30T08:24:17.820Z,97963.73194337246
2022-07-30T08:27:17.782Z,97962.21254371249
2022-07-30T08:31:16.272Z,97958.64123453779
2022-07-30T08:34:16.704Z,97961.22233430027
2022-07-30T08:37:16.638Z,97962.78073477643
2022-07-30T08:41:18.898Z,97957.6649345651
2022-07-30T08:44:18.066Z,97958.89266342908
2022-07-30T08:47:30.839Z,97962.34610336772
2022-07-30T08:51:18.954Z,97970.5268714051
2022-07-30T08:54:18.832Z,97968.87879936297
2022-07-30T08:57:17.593Z,97970.55113783326
2022-07-30T09:01:22.271Z,97968.00801235267
2022-07-30T09:04:16.550Z,97970.22322379187
2022-07-30T09:07:16.907Z,97975.83308758495
2022-07-30T09:11:17.148Z,97973.79035239523
2022-07-30T09:14:17.422Z,97970.45261643248
2022-07-30T09:17:17.439Z,97970.391674232
2022-07-30T09:21:18.066Z,97970.27794398335
2022-07-30T09:24:16.500Z,97960.7995119386
2022-07-30T09:41:37.622Z,97950.2720402183
2022-07-30T09:44:23.633Z,97949.11111051068
2022-07-30T09:47:35.238Z,97943.16442559
2022-07-30T09:51:19.288Z,97938.69121900156
2022-07-30T09:54:17.982Z,97931.55128765242
2022-07-30T09:57:26.207Z,97938.00008970515
2022-07-30T10:01:15.808Z,97925.51228251858
2022-07-30T10:11:20.163Z,97923.72803904062
2022-07-30T10:21:16.788Z,97924.0570513744
2022-07-30T10:51:25.634Z,97897.97779212019
2022-07-30T11:02:09.634Z,97886.56372863914
2022-07-30T11:04:37.256Z,97871.25071224336
2022-07-30T11:07:37.349Z,97874.38734702909
2022-07-30T11:12:16.064Z,97871.86288680471
2022-07-30T11:14:16.687Z,97863.97719158855
2022-07-30T11:17:18.412Z,97862.44081697619
2022-07-30T11:21:21.436Z,97867.35362817255
2022-07-30T11:24:42.754Z,97865.03473571621
2022-07-30T11:27:50.671Z,97850.24816029385
2022-07-30T11:31:56.261Z,97860.81066907984
2022-07-30T11:34:31.860Z,97858.48786362221
2022-07-30T11:37:22.300Z,97845.7895002177
2022-07-30T11:41:15.882Z,97844.724402722
2022-07-30T11:51:19.293Z,97823.56137239338
2022-07-30T12:01:16.932Z,97824.58050056899
2022-07-30T12:04:18.690Z,97820.48713701137
2022-07-30T12:07:22.947Z,97816.63376879171
2022-07-30T12:11:18.490Z,97816.79333960278
2022-07-30T12:21:19.091Z,97785.42252151205
2022-07-30T12:24:26.463Z,97778.20121721471
2022-07-30T12:27:18.719Z,97769.56922134076
2022-07-30T12:31:18.851Z,97752.14933432108
2022-07-30T12:34:22.649Z,97756.06181889269
2022-07-30T12:37:18.439Z,97752.28349512967
2022-07-30T12:41:18.913Z,97747.46760127312
2022-07-30T12:51:18.494Z,97756.38039977332
2022-07-30T12:54:19.847Z,97735.79071519081
2022-07-30T12:57:18.164Z,97749.27133408135
2022-07-30T13:01:18.845Z,97777.45217969592
2022-07-30T13:04:20.454Z,97781.13344661769
2022-07-30T13:07:19.883Z,97794.05371142819
2022-07-30T13:11:19.800Z,97811.3058712126
2022-07-30T13:14:24.726Z,97810.35204819597
2022-07-30T13:17:19.165Z,97782.27286024079
2022-07-30T13:31:23.445Z,97852.00513815616
2022-07-30T13:41:38.482Z,97849.62805715227
2022-07-30T14:01:20.141Z,97868.24887814799
2022-07-30T14:04:18.865Z,97858.16438836041
2022-07-30T14:07:18.794Z,97849.3810428819
2022-07-30T14:11:20.904Z,97845.93995006698
2022-07-30T14:14:18.606Z,97834.98213393074
2022-07-30T14:17:18.609Z,97824.85949592796
2022-07-30T14:21:17.937Z,97820.60204953718
2022-07-30T14:24:19.519Z,97822.31493823013
2022-07-30T14:27:21.499Z,97818.65434863116
2022-07-30T14:31:18.322Z,97803.2866351519
2022-07-30T14:34:19.401Z,97812.14064584965
2022-07-30T14:37:18.643Z,97793.02328991219
2022-07-30T14:41:17.561Z,97786.2323383808
2022-07-30T14:44:18.366Z,97779.267960346
2022-07-30T14:47:18.982Z,97786.3351240734
2022-07-30T14:51:22.975Z,97815.4119359413
2022-07-30T14:54:18.950Z,97818.94464585939
2022-07-30T14:57:19.039Z,97812.02730658757
2022-07-30T15:01:18.353Z,97813.09286310594
2022-07-30T15:04:21.531Z,97817.53931864206
2022-07-30T15:07:18.844Z,97809.391240406
2022-07-30T15:11:18.745Z,97809.17627328853
2022-07-30T15:14:18.029Z,97819.25711824321
2022-07-30T15:17:18.524Z,97810.4314516092
2022-07-30T15:21:17.999Z,97800.90428720728
2022-07-30T15:24:17.710Z,97805.94986561094
2022-07-30T15:27:18.469Z,97842.92185557261
2022-07-30T15:31:20.453Z,97852.70770126843
2022-07-30T15:34:16.584Z,97842.34825599744
2022-07-30T15:37:16.627Z,97840.87813806144
2022-07-30T15:41:18.020Z,97845.1661945463
2022-07-30T15:44:17.877Z,97836.00096339869
2022-07-30T15:47:18.317Z,97829.9363421034
2022-07-30T15:51:17.358Z,97843.41261284117
2022-07-30T15:54:22.445Z,97841.14520292457
2022-07-30T15:57:17.953Z,97839.25209368477
2022-07-30T16:01:18.070Z,97838.67223752283
2022-07-30T16:04:20.028Z,97831.33777893834
2022-07-30T16:07:18.007Z,97832.08623354137
2022-07-30T16:11:18.128Z,97826.11890446421
2022-07-30T16:14:18.454Z,97822.3295385383
2022-07-30T16:17:17.796Z,97817.06182992367
2022-07-30T16:21:19.729Z,97806.00804337031
2022-07-30T16:24:18.797Z,97799.38799786473
2022-07-30T16:27:18.924Z,97795.6924379029
2022-07-30T16:31:17.694Z,97790.13567026387
2022-07-30T16:34:23.027Z,97786.93936102875
2022-07-30T16:37:18.044Z,97791.90816699763
2022-07-30T16:41:17.489Z,97796.10943709484
2022-07-30T16:44:19.100Z,97804.9038604361
2022-07-30T16:47:18.231Z,97811.68237320076
2022-07-30T16:51:19.884Z,97809.10237546587
2022-07-30T17:01:19.031Z,97809.67120295794
2022-07-30T17:04:17.880Z,97797.90453324886
2022-07-30T17:07:18.228Z,97804.30231439945
2022-07-30T19:41:18.549Z,97931.80478252932
2022-07-30T19:44:20.795Z,97936.76350538357
2022-07-30T19:47:18.481Z,97936.55516549945
2022-07-30T19:51:20.931Z,97938.91708770316
2022-07-30T19:54:18.389Z,97937.29388802311
2022-07-30T19:57:20.618Z,97938.69135604377
2022-07-30T20:01:18.450Z,97944.02754212884
2022-07-30T20:04:18.613Z,97947.12592906221
2022-07-30T20:07:20.673Z,97945.41910345129
2022-07-30T20:11:48.755Z,97945.86040056097
2022-07-30T20:14:53.276Z,97952.80847939187
2022-07-30T20:21:18.214Z,97955.96175814484
2022-07-30T20:24:19.211Z,97955.89955615999
2022-07-30T20:41:18.882Z,97956.52013396221
2022-07-30T20:51:18.382Z,97958.56445609989
2022-07-30T20:54:18.288Z,97964.61446456057
2022-07-30T20:57:20.238Z,97958.52152722172
2022-07-30T21:01:21.835Z,97965.63998076195
2022-07-30T21:04:23.916Z,97963.20855026496
2022-07-30T21:07:20.622Z,97960.75943009583
2022-07-30T21:11:18.768Z,97957.48891236367
2022-07-30T21:14:18.219Z,97968.08021719451
2022-07-30T21:17:19.337Z,97966.31631753483
2022-07-30T21:21:17.818Z,97968.86453184212
2022-07-30T21:24:20.114Z,97971.75345189143
2022-07-30T21:27:19.100Z,97974.9612044728
2022-07-30T21:31:16.748Z,97973.47515224929
2022-07-30T21:34:17.485Z,97971.32831218801
2022-07-30T21:37:17.071Z,97977.34678306931
2022-07-30T21:41:19.622Z,97976.932388165
2022-07-30T21:44:17.491Z,97978.63707145082
2022-07-30T21:47:17.403Z,97982.93575453169
2022-07-30T21:51:17.386Z,97983.72664230572
2022-07-30T21:54:26.504Z,97987.60699677275
2022-07-30T21:57:26.372Z,97988.63588273877
2022-07-30T22:01:22.767Z,97992.87399750137
2022-07-30T22:04:17.405Z,97993.4130886922
2022-07-30T22:07:17.449Z,97994.9985558986
2022-07-30T22:21:17.341Z,98002.36314342525
2022-07-30T22:24:29.432Z,98000.80237277974
2022-07-30T22:27:17.509Z,98007.08172979104
2022-07-30T22:31:16.972Z,98008.12231773502
2022-07-30T22:34:17.342Z,98000.84567408919
2022-07-30T22:37:20.958Z,98001.45266603882
2022-07-30T22:41:17.322Z,97998.69406815925
2022-07-30T22:44:18.463Z,98001.29647402064
2022-07-30T22:47:21.102Z,97999.31343254994
2022-07-30T22:51:16.431Z,97999.14136186567
2022-07-30T22:54:16.906Z,98000.37618839946
2022-07-30T22:57:16.952Z,97998.90998908505
2022-07-30T23:01:17.544Z,97997.5443932303
2022-07-30T23:04:18.734Z,98002.87977572532
2022-07-30T23:07:19.010Z,98000.12139247938
2022-07-30T23:11:17.250Z,97994.06852207611
2022-07-30T23:14:17.658Z,97993.84467697004
2022-07-30T23:17:17.759Z,98000.79821625026
2022-07-30T23:21:17.039Z,97999.18147038163
2022-07-30T23:24:17.983Z,98006.82420613932
2022-07-30T23:27:17.536Z,98002.60693907787
2022-07-30T23:31:17.280Z,98001.62331841468
2022-07-30T23:34:17.706Z,97998.80423213993
2022-07-30T23:37:17.546Z,97993.60126287857
2022-07-30T23:41:29.698Z,97988.97703723318
2022-07-30T23:44:18.014Z,97989.18582001427
2022-07-30T23:47:17.845Z,97990.49258642734
2022-07-30T23:51:17.148Z,97985.23216795093
2022-07-30T23:54:17.744Z,97985.03461037063
2022-07-30T23:57:17.536Z,97983.06871139689
